sensor_id;sensor_type;location;lat;lon;timestamp;temperature;humidity
11569;DHT22;5840;46.894;15.542;2023-03-21T00:00:32;8.80;99.90
11569;DHT22;5840;46.894;15.542;2023-03-21T00:03:00;8.80;99.90
11569;DHT22;5840;46.894;15.542;2023-03-21T00:05:28;8.80;99.90
11569;DHT22;5840;46.894;15.542;2023-03-21T00:07:56;8.80;99.90
11569;DHT22;5840;46.894;15.542;2023-03-21T00:10:22;8.80;99.90
11569;DHT22;5840;46.894;15.542;2023-03-21T00:12:49;8.70;99.90
11569;DHT22;5840;46.894;15.542;2023-03-21T00:15:23;8.70;99.90
11569;DHT22;5840;46.894;15.542;2023-03-21T00:17:50;8.70;99.90
11569;DHT22;5840;46.894;15.542;2023-03-21T00:20:18;8.60;99.90
11569;DHT22;5840;46.894;15.542;2023-03-21T00:22:48;8.60;99.90
11569;DHT22;5840;46.894;15.542;2023-03-21T00:25:16;8.50;99.90
11569;DHT22;5840;46.894;15.542;2023-03-21T00:27:43;8.50;99.90
11569;DHT22;5840;46.894;15.542;2023-03-21T00:30:11;8.50;99.90
11569;DHT22;5840;46.894;15.542;2023-03-21T00:32:38;8.40;99.90
11569;DHT22;5840;46.894;15.542;2023-03-21T00:35:07;8.40;99.90
11569;DHT22;5840;46.894;15.542;2023-03-21T00:37:34;8.40;99.90
11569;DHT22;5840;46.894;15.542;2023-03-21T00:40:03;8.40;99.90
11569;DHT22;5840;46.894;15.542;2023-03-21T00:42:33;8.40;99.90
11569;DHT22;5840;46.894;15.542;2023-03-21T00:45:00;8.40;99.90
11569;DHT22;5840;46.894;15.542;2023-03-21T00:47:27;8.30;99.90
11569;DHT22;5840;46.894;15.542;2023-03-21T00:49:54;8.30;99.90
11569;DHT22;5840;46.894;15.542;2023-03-21T00:52:22;8.30;99.90
11569;DHT22;5840;46.894;15.542;2023-03-21T00:54:49;8.30;99.90
11569;DHT22;5840;46.894;15.542;2023-03-21T00:57:17;8.20;99.90
11569;DHT22;5840;46.894;15.542;2023-03-21T00:59:44;8.20;99.90
11569;DHT22;5840;46.894;15.542;2023-03-21T01:02:11;8.20;99.90
11569;DHT22;5840;46.894;15.542;2023-03-21T01:04:47;8.20;99.90
11569;DHT22;5840;46.894;15.542;2023-03-21T01:07:14;8.20;99.90
11569;DHT22;5840;46.894;15.542;2023-03-21T01:09:41;8.20;99.90
11569;DHT22;5840;46.894;15.542;2023-03-21T01:12:08;8.20;99.90
11569;DHT22;5840;46.894;15.542;2023-03-21T01:14:36;8.20;99.90
11569;DHT22;5840;46.894;15.542;2023-03-21T01:17:04;8.20;99.90
11569;DHT22;5840;46.894;15.542;2023-03-21T01:19:31;8.20;99.90
11569;DHT22;5840;46.894;15.542;2023-03-21T01:21:58;8.20;99.90
11569;DHT22;5840;46.894;15.542;2023-03-21T01:24:25;8.20;99.90
11569;DHT22;5840;46.894;15.542;2023-03-21T01:26:53;8.20;99.90
11569;DHT22;5840;46.894;15.542;2023-03-21T01:29:20;8.20;99.90
11569;DHT22;5840;46.894;15.542;2023-03-21T01:31:48;8.20;99.90
11569;DHT22;5840;46.894;15.542;2023-03-21T01:34:15;8.20;99.90
11569;DHT22;5840;46.894;15.542;2023-03-21T01:36:42;8.20;99.90
11569;DHT22;5840;46.894;15.542;2023-03-21T01:39:09;8.20;99.90
11569;DHT22;5840;46.894;15.542;2023-03-21T01:41:37;8.10;99.90
11569;DHT22;5840;46.894;15.542;2023-03-21T01:44:05;8.10;99.90
11569;DHT22;5840;46.894;15.542;2023-03-21T01:46:37;8.10;99.90
11569;DHT22;5840;46.894;15.542;2023-03-21T01:49:11;8.10;99.90
11569;DHT22;5840;46.894;15.542;2023-03-21T01:51:43;8.10;99.90
11569;DHT22;5840;46.894;15.542;2023-03-21T01:54:14;8.10;99.90
11569;DHT22;5840;46.894;15.542;2023-03-21T01:56:42;8.10;99.90
11569;DHT22;5840;46.894;15.542;2023-03-21T01:59:14;8.00;99.90
11569;DHT22;5840;46.894;15.542;2023-03-21T02:01:43;8.00;99.90
11569;DHT22;5840;46.894;15.542;2023-03-21T02:04:12;7.90;99.90
11569;DHT22;5840;46.894;15.542;2023-03-21T02:06:45;7.90;99.90
11569;DHT22;5840;46.894;15.542;2023-03-21T02:09:19;7.90;99.90
11569;DHT22;5840;46.894;15.542;2023-03-21T02:11:48;7.90;99.90
11569;DHT22;5840;46.894;15.542;2023-03-21T02:14:17;7.90;99.90
11569;DHT22;5840;46.894;15.542;2023-03-21T02:16:53;7.90;99.90
11569;DHT22;5840;46.894;15.542;2023-03-21T02:20:11;7.90;99.90
11569;DHT22;5840;46.894;15.542;2023-03-21T02:22:50;7.90;99.90
11569;DHT22;5840;46.894;15.542;2023-03-21T02:25:47;7.90;99.90
11569;DHT22;5840;46.894;15.542;2023-03-21T02:28:23;7.90;99.90
11569;DHT22;5840;46.894;15.542;2023-03-21T02:31:08;7.90;99.90
11569;DHT22;5840;46.894;15.542;2023-03-21T02:34:14;7.80;99.90
11569;DHT22;5840;46.894;15.542;2023-03-21T02:39:46;7.80;99.90
11569;DHT22;5840;46.894;15.542;2023-03-21T02:42:19;7.80;99.90
11569;DHT22;5840;46.894;15.542;2023-03-21T02:44:53;7.80;99.90
11569;DHT22;5840;46.894;15.542;2023-03-21T02:47:25;7.90;99.90
11569;DHT22;5840;46.894;15.542;2023-03-21T02:49:57;7.90;99.90
11569;DHT22;5840;46.894;15.542;2023-03-21T02:52:30;7.80;99.90
11569;DHT22;5840;46.894;15.542;2023-03-21T02:54:59;7.80;99.90
11569;DHT22;5840;46.894;15.542;2023-03-21T02:57:30;7.90;99.90
11569;DHT22;5840;46.894;15.542;2023-03-21T02:59:57;7.80;99.90
11569;DHT22;5840;46.894;15.542;2023-03-21T03:02:27;7.90;99.90
11569;DHT22;5840;46.894;15.542;2023-03-21T03:04:54;7.90;99.90
11569;DHT22;5840;46.894;15.542;2023-03-21T03:07:33;7.80;99.90
11569;DHT22;5840;46.894;15.542;2023-03-21T03:10:30;7.90;99.90
11569;DHT22;5840;46.894;15.542;2023-03-21T03:13:04;7.90;99.90
11569;DHT22;5840;46.894;15.542;2023-03-21T03:15:39;7.80;99.90
11569;DHT22;5840;46.894;15.542;2023-03-21T03:18:15;7.80;99.90
11569;DHT22;5840;46.894;15.542;2023-03-21T03:20:51;7.80;99.90
11569;DHT22;5840;46.894;15.542;2023-03-21T03:23:28;7.70;99.90
11569;DHT22;5840;46.894;15.542;2023-03-21T03:25:59;7.70;99.90
11569;DHT22;5840;46.894;15.542;2023-03-21T03:28:32;7.70;99.90
11569;DHT22;5840;46.894;15.542;2023-03-21T03:31:00;7.70;99.90
11569;DHT22;5840;46.894;15.542;2023-03-21T03:33:29;7.70;99.90
11569;DHT22;5840;46.894;15.542;2023-03-21T03:35:58;7.70;99.90
11569;DHT22;5840;46.894;15.542;2023-03-21T03:38:28;7.70;99.90
11569;DHT22;5840;46.894;15.542;2023-03-21T03:40:58;7.60;99.90
11569;DHT22;5840;46.894;15.542;2023-03-21T03:43:32;7.70;99.90
11569;DHT22;5840;46.894;15.542;2023-03-21T03:46:09;7.70;99.90
11569;DHT22;5840;46.894;15.542;2023-03-21T03:48:42;7.70;99.90
11569;DHT22;5840;46.894;15.542;2023-03-21T03:51:15;7.70;99.90
11569;DHT22;5840;46.894;15.542;2023-03-21T03:53:47;7.70;99.90
11569;DHT22;5840;46.894;15.542;2023-03-21T03:56:16;7.70;99.90
11569;DHT22;5840;46.894;15.542;2023-03-21T03:58:43;7.60;99.90
11569;DHT22;5840;46.894;15.542;2023-03-21T04:01:10;7.70;99.90
11569;DHT22;5840;46.894;15.542;2023-03-21T04:03:40;7.70;99.90
11569;DHT22;5840;46.894;15.542;2023-03-21T04:06:08;7.70;99.90
11569;DHT22;5840;46.894;15.542;2023-03-21T04:08:35;7.60;99.90
11569;DHT22;5840;46.894;15.542;2023-03-21T04:11:05;7.70;99.90
11569;DHT22;5840;46.894;15.542;2023-03-21T04:13:33;7.70;99.90
11569;DHT22;5840;46.894;15.542;2023-03-21T04:16:00;7.70;99.90
11569;DHT22;5840;46.894;15.542;2023-03-21T04:18:27;7.60;99.90
11569;DHT22;5840;46.894;15.542;2023-03-21T04:20:54;7.60;99.90
11569;DHT22;5840;46.894;15.542;2023-03-21T04:23:21;7.60;99.90
11569;DHT22;5840;46.894;15.542;2023-03-21T04:25:48;7.60;99.90
11569;DHT22;5840;46.894;15.542;2023-03-21T04:28:17;7.50;99.90
11569;DHT22;5840;46.894;15.542;2023-03-21T04:30:47;7.50;99.90
11569;DHT22;5840;46.894;15.542;2023-03-21T04:33:15;7.50;99.90
11569;DHT22;5840;46.894;15.542;2023-03-21T04:35:42;7.60;99.90
11569;DHT22;5840;46.894;15.542;2023-03-21T04:38:10;7.50;99.90
11569;DHT22;5840;46.894;15.542;2023-03-21T04:40:37;7.50;99.90
11569;DHT22;5840;46.894;15.542;2023-03-21T04:43:04;7.50;99.90
11569;DHT22;5840;46.894;15.542;2023-03-21T04:45:32;7.40;99.90
11569;DHT22;5840;46.894;15.542;2023-03-21T04:47:59;7.40;99.90
11569;DHT22;5840;46.894;15.542;2023-03-21T04:50:26;7.30;99.90
11569;DHT22;5840;46.894;15.542;2023-03-21T04:52:53;7.30;99.90
11569;DHT22;5840;46.894;15.542;2023-03-21T04:55:20;7.30;99.90
11569;DHT22;5840;46.894;15.542;2023-03-21T04:57:49;7.20;99.90
11569;DHT22;5840;46.894;15.542;2023-03-21T05:00:16;7.20;99.90
11569;DHT22;5840;46.894;15.542;2023-03-21T05:02:45;7.20;99.90
11569;DHT22;5840;46.894;15.542;2023-03-21T05:05:12;7.20;99.90
11569;DHT22;5840;46.894;15.542;2023-03-21T05:07:40;7.20;99.90
11569;DHT22;5840;46.894;15.542;2023-03-21T05:10:10;7.20;99.90
11569;DHT22;5840;46.894;15.542;2023-03-21T05:12:37;7.20;99.90
11569;DHT22;5840;46.894;15.542;2023-03-21T05:15:05;7.10;99.90
11569;DHT22;5840;46.894;15.542;2023-03-21T05:17:32;7.10;99.90
11569;DHT22;5840;46.894;15.542;2023-03-21T05:20:01;7.10;99.90
11569;DHT22;5840;46.894;15.542;2023-03-21T05:22:29;7.10;99.90
11569;DHT22;5840;46.894;15.542;2023-03-21T05:25:05;7.00;99.90
11569;DHT22;5840;46.894;15.542;2023-03-21T05:27:33;6.90;99.90
11569;DHT22;5840;46.894;15.542;2023-03-21T05:30:02;6.80;99.90
11569;DHT22;5840;46.894;15.542;2023-03-21T05:32:30;6.80;99.90
11569;DHT22;5840;46.894;15.542;2023-03-21T05:34:57;6.80;99.90
11569;DHT22;5840;46.894;15.542;2023-03-21T05:37:25;6.80;99.90
11569;DHT22;5840;46.894;15.542;2023-03-21T05:39:52;6.80;99.90
11569;DHT22;5840;46.894;15.542;2023-03-21T05:42:19;6.80;99.90
11569;DHT22;5840;46.894;15.542;2023-03-21T05:44:46;6.80;99.90
11569;DHT22;5840;46.894;15.542;2023-03-21T05:47:15;6.80;99.90
11569;DHT22;5840;46.894;15.542;2023-03-21T05:49:43;6.80;99.90
11569;DHT22;5840;46.894;15.542;2023-03-21T05:52:10;6.80;99.90
11569;DHT22;5840;46.894;15.542;2023-03-21T05:54:39;6.80;99.90
11569;DHT22;5840;46.894;15.542;2023-03-21T05:57:06;6.80;99.90
11569;DHT22;5840;46.894;15.542;2023-03-21T05:59:33;6.90;99.90
11569;DHT22;5840;46.894;15.542;2023-03-21T06:02:00;6.90;99.90
11569;DHT22;5840;46.894;15.542;2023-03-21T06:04:27;6.90;99.90
11569;DHT22;5840;46.894;15.542;2023-03-21T06:06:54;6.90;99.90
11569;DHT22;5840;46.894;15.542;2023-03-21T06:09:21;7.00;99.90
11569;DHT22;5840;46.894;15.542;2023-03-21T06:11:52;7.00;99.90
11569;DHT22;5840;46.894;15.542;2023-03-21T06:14:21;7.10;99.90
11569;DHT22;5840;46.894;15.542;2023-03-21T06:16:48;7.10;99.90
11569;DHT22;5840;46.894;15.542;2023-03-21T06:19:16;7.20;99.90
11569;DHT22;5840;46.894;15.542;2023-03-21T06:21:42;7.30;99.90
11569;DHT22;5840;46.894;15.542;2023-03-21T06:24:09;7.40;99.90
11569;DHT22;5840;46.894;15.542;2023-03-21T06:26:36;7.60;99.90
11569;DHT22;5840;46.894;15.542;2023-03-21T06:29:05;7.80;99.90
11569;DHT22;5840;46.894;15.542;2023-03-21T06:31:32;8.00;99.90
11569;DHT22;5840;46.894;15.542;2023-03-21T06:33:59;8.20;99.90
11569;DHT22;5840;46.894;15.542;2023-03-21T06:36:26;8.30;99.90
11569;DHT22;5840;46.894;15.542;2023-03-21T06:38:53;8.40;99.90
11569;DHT22;5840;46.894;15.542;2023-03-21T06:41:20;8.40;99.90
11569;DHT22;5840;46.894;15.542;2023-03-21T06:43:47;8.40;99.90
11569;DHT22;5840;46.894;15.542;2023-03-21T06:46:15;8.40;99.90
11569;DHT22;5840;46.894;15.542;2023-03-21T06:48:42;8.40;99.90
11569;DHT22;5840;46.894;15.542;2023-03-21T06:51:11;8.50;99.90
11569;DHT22;5840;46.894;15.542;2023-03-21T06:53:38;8.60;99.90
11569;DHT22;5840;46.894;15.542;2023-03-21T06:56:07;8.70;99.90
11569;DHT22;5840;46.894;15.542;2023-03-21T06:58:34;8.80;99.90
11569;DHT22;5840;46.894;15.542;2023-03-21T07:01:01;8.90;99.90
11569;DHT22;5840;46.894;15.542;2023-03-21T07:03:30;9.10;99.90
11569;DHT22;5840;46.894;15.542;2023-03-21T07:05:57;9.20;99.90
11569;DHT22;5840;46.894;15.542;2023-03-21T07:08:24;9.30;99.90
11569;DHT22;5840;46.894;15.542;2023-03-21T07:10:54;9.40;99.90
11569;DHT22;5840;46.894;15.542;2023-03-21T07:13:22;9.60;99.90
11569;DHT22;5840;46.894;15.542;2023-03-21T07:15:49;9.80;99.90
11569;DHT22;5840;46.894;15.542;2023-03-21T07:18:16;9.90;99.90
11569;DHT22;5840;46.894;15.542;2023-03-21T07:20:46;10.10;99.90
11569;DHT22;5840;46.894;15.542;2023-03-21T07:23:16;10.30;99.90
11569;DHT22;5840;46.894;15.542;2023-03-21T07:25:43;10.40;99.90
11569;DHT22;5840;46.894;15.542;2023-03-21T07:28:11;10.50;99.90
11569;DHT22;5840;46.894;15.542;2023-03-21T07:30:38;10.70;99.90
11569;DHT22;5840;46.894;15.542;2023-03-21T07:33:05;10.90;99.90
11569;DHT22;5840;46.894;15.542;2023-03-21T07:35:33;11.00;99.90
11569;DHT22;5840;46.894;15.542;2023-03-21T07:38:02;11.20;99.90
11569;DHT22;5840;46.894;15.542;2023-03-21T07:40:29;11.40;99.90
11569;DHT22;5840;46.894;15.542;2023-03-21T07:42:56;11.70;99.90
11569;DHT22;5840;46.894;15.542;2023-03-21T07:45:24;11.80;99.90
11569;DHT22;5840;46.894;15.542;2023-03-21T07:47:52;12.10;99.90
11569;DHT22;5840;46.894;15.542;2023-03-21T07:50:19;12.50;99.90
11569;DHT22;5840;46.894;15.542;2023-03-21T07:52:46;12.90;99.90
11569;DHT22;5840;46.894;15.542;2023-03-21T07:55:15;13.20;99.90
11569;DHT22;5840;46.894;15.542;2023-03-21T07:57:43;13.50;99.60
11569;DHT22;5840;46.894;15.542;2023-03-21T08:00:12;13.80;98.70
11569;DHT22;5840;46.894;15.542;2023-03-21T08:02:48;13.90;97.60
11569;DHT22;5840;46.894;15.542;2023-03-21T08:05:19;14.10;97.20
11569;DHT22;5840;46.894;15.542;2023-03-21T08:07:46;14.20;97.20
11569;DHT22;5840;46.894;15.542;2023-03-21T08:10:15;14.40;97.90
11569;DHT22;5840;46.894;15.542;2023-03-21T08:12:42;14.60;96.60
11569;DHT22;5840;46.894;15.542;2023-03-21T08:15:10;14.80;97.40
11569;DHT22;5840;46.894;15.542;2023-03-21T08:17:37;15.20;96.60
11569;DHT22;5840;46.894;15.542;2023-03-21T08:20:06;15.50;94.90
11569;DHT22;5840;46.894;15.542;2023-03-21T08:22:35;15.70;95.50
11569;DHT22;5840;46.894;15.542;2023-03-21T08:25:03;15.80;94.40
11569;DHT22;5840;46.894;15.542;2023-03-21T08:27:32;16.00;94.60
11569;DHT22;5840;46.894;15.542;2023-03-21T08:30:00;16.20;94.00
11569;DHT22;5840;46.894;15.542;2023-03-21T08:32:28;16.40;92.80
11569;DHT22;5840;46.894;15.542;2023-03-21T08:34:58;16.60;92.80
11569;DHT22;5840;46.894;15.542;2023-03-21T08:37:25;16.70;91.80
11569;DHT22;5840;46.894;15.542;2023-03-21T08:39:53;16.90;91.70
11569;DHT22;5840;46.894;15.542;2023-03-21T08:42:21;17.10;91.60
11569;DHT22;5840;46.894;15.542;2023-03-21T08:44:49;17.30;91.00
11569;DHT22;5840;46.894;15.542;2023-03-21T08:47:16;17.40;89.20
11569;DHT22;5840;46.894;15.542;2023-03-21T08:49:43;17.40;91.40
11569;DHT22;5840;46.894;15.542;2023-03-21T08:52:11;17.50;90.50
11569;DHT22;5840;46.894;15.542;2023-03-21T08:54:38;17.70;88.40
11569;DHT22;5840;46.894;15.542;2023-03-21T08:57:06;17.70;87.40
11569;DHT22;5840;46.894;15.542;2023-03-21T08:59:35;18.00;87.40
11569;DHT22;5840;46.894;15.542;2023-03-21T09:02:03;18.10;85.30
11569;DHT22;5840;46.894;15.542;2023-03-21T09:04:30;18.30;84.70
11569;DHT22;5840;46.894;15.542;2023-03-21T09:06:57;18.40;85.30
11569;DHT22;5840;46.894;15.542;2023-03-21T09:09:26;18.40;85.70
11569;DHT22;5840;46.894;15.542;2023-03-21T09:11:53;18.50;85.50
11569;DHT22;5840;46.894;15.542;2023-03-21T09:14:20;18.80;87.50
11569;DHT22;5840;46.894;15.542;2023-03-21T09:16:47;19.00;82.50
11569;DHT22;5840;46.894;15.542;2023-03-21T09:19:16;19.00;84.40
11569;DHT22;5840;46.894;15.542;2023-03-21T09:21:43;19.00;82.00
11569;DHT22;5840;46.894;15.542;2023-03-21T09:24:11;19.20;84.80
11569;DHT22;5840;46.894;15.542;2023-03-21T09:26:40;19.50;82.70
11569;DHT22;5840;46.894;15.542;2023-03-21T09:29:08;19.60;77.50
11569;DHT22;5840;46.894;15.542;2023-03-21T09:31:35;19.60;80.40
11569;DHT22;5840;46.894;15.542;2023-03-21T09:34:04;19.60;79.70
11569;DHT22;5840;46.894;15.542;2023-03-21T09:36:32;19.60;78.50
11569;DHT22;5840;46.894;15.542;2023-03-21T09:39:01;19.30;78.50
11569;DHT22;5840;46.894;15.542;2023-03-21T09:41:45;19.30;77.30
11569;DHT22;5840;46.894;15.542;2023-03-21T09:44:25;19.40;75.40
11569;DHT22;5840;46.894;15.542;2023-03-21T09:46:59;19.50;76.20
11569;DHT22;5840;46.894;15.542;2023-03-21T09:49:31;19.90;75.60
11569;DHT22;5840;46.894;15.542;2023-03-21T09:52:06;20.10;78.80
11569;DHT22;5840;46.894;15.542;2023-03-21T09:54:39;20.40;75.40
11569;DHT22;5840;46.894;15.542;2023-03-21T09:57:15;20.30;73.40
11569;DHT22;5840;46.894;15.542;2023-03-21T09:59:48;20.00;77.80
11569;DHT22;5840;46.894;15.542;2023-03-21T10:02:33;19.80;75.90
11569;DHT22;5840;46.894;15.542;2023-03-21T10:05:05;19.50;72.90
11569;DHT22;5840;46.894;15.542;2023-03-21T10:07:39;19.50;73.00
11569;DHT22;5840;46.894;15.542;2023-03-21T10:10:14;19.40;72.60
11569;DHT22;5840;46.894;15.542;2023-03-21T10:12:43;19.40;73.90
11569;DHT22;5840;46.894;15.542;2023-03-21T10:15:15;19.30;74.10
11569;DHT22;5840;46.894;15.542;2023-03-21T10:17:46;19.20;70.50
11569;DHT22;5840;46.894;15.542;2023-03-21T10:20:17;18.80;71.40
11569;DHT22;5840;46.894;15.542;2023-03-21T10:22:49;18.80;73.70
11569;DHT22;5840;46.894;15.542;2023-03-21T10:25:19;18.70;72.60
11569;DHT22;5840;46.894;15.542;2023-03-21T10:27:47;18.60;69.70
11569;DHT22;5840;46.894;15.542;2023-03-21T10:30:27;18.40;70.90
11569;DHT22;5840;46.894;15.542;2023-03-21T10:32:56;18.30;70.50
11569;DHT22;5840;46.894;15.542;2023-03-21T10:35:27;18.30;74.10
11569;DHT22;5840;46.894;15.542;2023-03-21T10:37:56;18.30;73.40
11569;DHT22;5840;46.894;15.542;2023-03-21T10:40:23;18.20;74.50
11569;DHT22;5840;46.894;15.542;2023-03-21T10:42:50;18.20;71.50
11569;DHT22;5840;46.894;15.542;2023-03-21T10:45:22;18.30;71.10
11569;DHT22;5840;46.894;15.542;2023-03-21T10:47:50;18.30;69.20
11569;DHT22;5840;46.894;15.542;2023-03-21T10:50:19;18.40;71.30
11569;DHT22;5840;46.894;15.542;2023-03-21T10:52:54;18.50;70.20
11569;DHT22;5840;46.894;15.542;2023-03-21T10:55:28;18.60;68.80
11569;DHT22;5840;46.894;15.542;2023-03-21T10:57:59;18.60;68.80
11569;DHT22;5840;46.894;15.542;2023-03-21T11:00:29;18.60;67.90
11569;DHT22;5840;46.894;15.542;2023-03-21T11:03:00;18.40;69.40
11569;DHT22;5840;46.894;15.542;2023-03-21T11:05:34;18.40;68.40
11569;DHT22;5840;46.894;15.542;2023-03-21T11:08:03;18.60;71.20
11569;DHT22;5840;46.894;15.542;2023-03-21T11:10:35;18.70;72.00
11569;DHT22;5840;46.894;15.542;2023-03-21T11:13:06;18.70;70.10
11569;DHT22;5840;46.894;15.542;2023-03-21T11:15:41;18.60;69.50
11569;DHT22;5840;46.894;15.542;2023-03-21T11:18:17;18.60;70.80
11569;DHT22;5840;46.894;15.542;2023-03-21T11:20:50;18.50;71.90
11569;DHT22;5840;46.894;15.542;2023-03-21T11:23:18;18.40;70.80
11569;DHT22;5840;46.894;15.542;2023-03-21T11:25:48;18.50;72.80
11569;DHT22;5840;46.894;15.542;2023-03-21T11:28:18;18.80;74.70
11569;DHT22;5840;46.894;15.542;2023-03-21T11:30:51;19.30;72.90
11569;DHT22;5840;46.894;15.542;2023-03-21T11:33:21;20.10;70.90
11569;DHT22;5840;46.894;15.542;2023-03-21T11:35:59;20.50;68.30
11569;DHT22;5840;46.894;15.542;2023-03-21T11:38:30;20.60;69.20
11569;DHT22;5840;46.894;15.542;2023-03-21T11:41:00;20.90;70.00
11569;DHT22;5840;46.894;15.542;2023-03-21T11:43:30;21.10;67.30
11569;DHT22;5840;46.894;15.542;2023-03-21T11:45:59;21.50;67.40
11569;DHT22;5840;46.894;15.542;2023-03-21T11:48:39;22.00;67.10
11569;DHT22;5840;46.894;15.542;2023-03-21T11:51:13;22.10;65.40
11569;DHT22;5840;46.894;15.542;2023-03-21T11:53:46;22.10;66.20
11569;DHT22;5840;46.894;15.542;2023-03-21T11:56:22;22.20;64.40
11569;DHT22;5840;46.894;15.542;2023-03-21T11:59:11;22.30;68.60
11569;DHT22;5840;46.894;15.542;2023-03-21T12:01:50;22.60;65.30
11569;DHT22;5840;46.894;15.542;2023-03-21T12:04:35;22.60;60.60
11569;DHT22;5840;46.894;15.542;2023-03-21T12:07:19;22.40;61.40
11569;DHT22;5840;46.894;15.542;2023-03-21T12:09:54;22.40;62.90
11569;DHT22;5840;46.894;15.542;2023-03-21T12:12:32;22.30;61.90
11569;DHT22;5840;46.894;15.542;2023-03-21T12:15:11;22.50;62.70
11569;DHT22;5840;46.894;15.542;2023-03-21T12:17:50;22.40;61.50
11569;DHT22;5840;46.894;15.542;2023-03-21T12:20:43;22.70;62.00
11569;DHT22;5840;46.894;15.542;2023-03-21T12:23:39;22.30;60.00
11569;DHT22;5840;46.894;15.542;2023-03-21T12:26:17;22.10;65.20
11569;DHT22;5840;46.894;15.542;2023-03-21T12:28:56;21.70;62.20
11569;DHT22;5840;46.894;15.542;2023-03-21T12:31:29;21.50;63.50
11569;DHT22;5840;46.894;15.542;2023-03-21T12:34:11;21.30;64.10
11569;DHT22;5840;46.894;15.542;2023-03-21T12:36:53;21.40;62.30
11569;DHT22;5840;46.894;15.542;2023-03-21T12:39:27;21.50;62.70
11569;DHT22;5840;46.894;15.542;2023-03-21T12:42:08;21.70;61.80
11569;DHT22;5840;46.894;15.542;2023-03-21T12:44:43;21.80;62.60
11569;DHT22;5840;46.894;15.542;2023-03-21T12:47:13;22.00;61.40
11569;DHT22;5840;46.894;15.542;2023-03-21T12:49:46;22.20;63.00
11569;DHT22;5840;46.894;15.542;2023-03-21T12:52:18;22.40;63.60
11569;DHT22;5840;46.894;15.542;2023-03-21T12:54:49;22.40;61.00
11569;DHT22;5840;46.894;15.542;2023-03-21T12:57:21;22.40;59.60
11569;DHT22;5840;46.894;15.542;2023-03-21T12:59:54;22.50;63.00
11569;DHT22;5840;46.894;15.542;2023-03-21T13:02:28;22.50;60.60
11569;DHT22;5840;46.894;15.542;2023-03-21T13:04:58;22.30;59.40
11569;DHT22;5840;46.894;15.542;2023-03-21T13:07:33;22.00;61.30
11569;DHT22;5840;46.894;15.542;2023-03-21T13:10:05;21.80;62.00
11569;DHT22;5840;46.894;15.542;2023-03-21T13:12:44;21.60;62.70
11569;DHT22;5840;46.894;15.542;2023-03-21T13:15:46;21.50;62.30
11569;DHT22;5840;46.894;15.542;2023-03-21T13:18:22;21.40;61.50
11569;DHT22;5840;46.894;15.542;2023-03-21T13:20:54;21.20;63.40
11569;DHT22;5840;46.894;15.542;2023-03-21T13:23:22;21.20;62.60
11569;DHT22;5840;46.894;15.542;2023-03-21T13:25:52;21.20;62.70
11569;DHT22;5840;46.894;15.542;2023-03-21T13:28:21;21.40;62.90
11569;DHT22;5840;46.894;15.542;2023-03-21T13:30:50;21.60;64.30
11569;DHT22;5840;46.894;15.542;2023-03-21T13:33:21;21.50;64.50
11569;DHT22;5840;46.894;15.542;2023-03-21T13:36:04;21.70;62.20
11569;DHT22;5840;46.894;15.542;2023-03-21T13:38:33;22.00;62.70
11569;DHT22;5840;46.894;15.542;2023-03-21T13:41:05;22.20;61.60
11569;DHT22;5840;46.894;15.542;2023-03-21T13:43:39;22.30;61.30
11569;DHT22;5840;46.894;15.542;2023-03-21T13:46:10;22.40;62.00
11569;DHT22;5840;46.894;15.542;2023-03-21T13:48:53;22.40;60.10
11569;DHT22;5840;46.894;15.542;2023-03-21T13:51:38;21.80;60.90
11569;DHT22;5840;46.894;15.542;2023-03-21T13:54:17;21.60;63.70
11569;DHT22;5840;46.894;15.542;2023-03-21T13:56:49;21.50;62.30
11569;DHT22;5840;46.894;15.542;2023-03-21T13:59:18;21.50;63.10
11569;DHT22;5840;46.894;15.542;2023-03-21T14:02:00;21.40;62.60
11569;DHT22;5840;46.894;15.542;2023-03-21T14:04:30;20.80;63.60
11569;DHT22;5840;46.894;15.542;2023-03-21T14:07:01;20.40;64.50
11569;DHT22;5840;46.894;15.542;2023-03-21T14:09:31;20.20;63.50
11569;DHT22;5840;46.894;15.542;2023-03-21T14:12:00;20.00;64.70
11569;DHT22;5840;46.894;15.542;2023-03-21T14:14:31;20.00;66.00
11569;DHT22;5840;46.894;15.542;2023-03-21T14:17:00;20.20;65.20
11569;DHT22;5840;46.894;15.542;2023-03-21T14:19:31;20.30;67.70
11569;DHT22;5840;46.894;15.542;2023-03-21T14:21:58;20.30;62.90
11569;DHT22;5840;46.894;15.542;2023-03-21T14:24:25;20.50;64.30
11569;DHT22;5840;46.894;15.542;2023-03-21T14:26:53;20.40;63.60
11569;DHT22;5840;46.894;15.542;2023-03-21T14:29:24;20.40;62.80
11569;DHT22;5840;46.894;15.542;2023-03-21T14:31:53;20.20;64.40
11569;DHT22;5840;46.894;15.542;2023-03-21T14:34:22;20.00;66.10
11569;DHT22;5840;46.894;15.542;2023-03-21T14:36:51;19.80;63.70
11569;DHT22;5840;46.894;15.542;2023-03-21T14:39:20;19.70;64.80
11569;DHT22;5840;46.894;15.542;2023-03-21T14:41:51;19.90;65.00
11569;DHT22;5840;46.894;15.542;2023-03-21T14:44:21;20.30;66.30
11569;DHT22;5840;46.894;15.542;2023-03-21T14:46:58;20.50;62.50
11569;DHT22;5840;46.894;15.542;2023-03-21T14:49:28;20.90;66.30
11569;DHT22;5840;46.894;15.542;2023-03-21T14:51:57;21.10;64.70
11569;DHT22;5840;46.894;15.542;2023-03-21T14:54:25;21.20;63.40
11569;DHT22;5840;46.894;15.542;2023-03-21T14:56:56;21.20;62.00
11569;DHT22;5840;46.894;15.542;2023-03-21T14:59:29;21.20;62.40
11569;DHT22;5840;46.894;15.542;2023-03-21T15:01:59;21.10;61.60
11569;DHT22;5840;46.894;15.542;2023-03-21T15:04:30;21.10;61.80
11569;DHT22;5840;46.894;15.542;2023-03-21T15:06:59;21.00;64.20
11569;DHT22;5840;46.894;15.542;2023-03-21T15:09:30;20.90;61.00
11569;DHT22;5840;46.894;15.542;2023-03-21T15:11:58;20.90;62.30
11569;DHT22;5840;46.894;15.542;2023-03-21T15:14:28;20.80;63.30
11569;DHT22;5840;46.894;15.542;2023-03-21T15:16:58;20.90;65.10
11569;DHT22;5840;46.894;15.542;2023-03-21T15:19:34;20.80;62.60
11569;DHT22;5840;46.894;15.542;2023-03-21T15:22:07;20.80;63.30
11569;DHT22;5840;46.894;15.542;2023-03-21T15:24:37;20.50;62.80
11569;DHT22;5840;46.894;15.542;2023-03-21T15:27:11;20.40;63.80
11569;DHT22;5840;46.894;15.542;2023-03-21T15:29:39;20.20;65.30
11569;DHT22;5840;46.894;15.542;2023-03-21T15:32:13;20.10;63.30
11569;DHT22;5840;46.894;15.542;2023-03-21T15:34:43;19.90;63.80
11569;DHT22;5840;46.894;15.542;2023-03-21T15:37:16;19.80;66.00
11569;DHT22;5840;46.894;15.542;2023-03-21T15:39:44;19.70;64.70
11569;DHT22;5840;46.894;15.542;2023-03-21T15:42:28;19.60;65.20
11569;DHT22;5840;46.894;15.542;2023-03-21T15:44:59;19.50;65.50
11569;DHT22;5840;46.894;15.542;2023-03-21T15:47:41;19.30;65.60
11569;DHT22;5840;46.894;15.542;2023-03-21T15:50:20;19.20;65.60
11569;DHT22;5840;46.894;15.542;2023-03-21T15:52:48;19.10;66.30
11569;DHT22;5840;46.894;15.542;2023-03-21T15:55:19;19.00;66.20
11569;DHT22;5840;46.894;15.542;2023-03-21T15:57:52;19.00;66.40
11569;DHT22;5840;46.894;15.542;2023-03-21T16:00:30;18.90;66.80
11569;DHT22;5840;46.894;15.542;2023-03-21T16:03:05;18.90;68.10